»·PEaware :: WAT295 KSBP-KSBD

WAT295 :: KSBP-KSBD

FLIGHT INFORMATION

Flight Status: Arrived
Operator: Unknown
More flights by this operator :: More flights under this callsign
Pilot: Corentin D. (28157)
Aircraft: CESSNA 510 CITATION MUSTANG
(C510)
More flights by this aircraft type
Origin: KSBP San Luis Co Regl
United States
Destination: KSBD San Bernardino Intl
United States
More flights between these airports :: More routes between these airports
Route: +RZS V386 FIM V186 ITSME V264 POM V197 PDZ
File this flight plan on PilotEdge
Remarks: TEC route SBAP52
Altitude:
(Current/Filed)
11,000ft
Speed:
(Current/Filed)
270kts
Departed: 16-Jul-20 12:31 PM
Arrived: 16-Jul-20 01:18 PM
Distance/Time
Traveled:
182nm/0:47
Distance/Time
To Go:
Arrived

Flight Plot

Page will automatically refresh every two minutes.

Flight plan parsing failed; only flown route is shown


Map Options




Map Legend


Flown Route
Filed Route
Departure Airport
Arrival Airport
Navaid (VOR, NDB)
Fix

Horizontal Profiles

Position Reports

Time Latitude Longitude Heading Altitude Ground
Speed
16-Jul-20 12:18 35.235707 -120.633746 213 222ft 0kts
16-Jul-20 12:19 35.235707 -120.633746 213 222ft 0kts
16-Jul-20 12:20 35.235707 -120.633746 213 222ft 0kts
16-Jul-20 12:21 35.235707 -120.633746 213 222ft 0kts
16-Jul-20 12:22 35.235707 -120.633746 213 222ft 0kts
16-Jul-20 12:23 35.235707 -120.633746 213 222ft 0kts
16-Jul-20 12:24 35.235039 -120.634262 205 222ft 9kts
16-Jul-20 12:25 35.233956 -120.633153 128 222ft 6kts
16-Jul-20 12:26 35.233361 -120.632147 213 220ft 0kts
16-Jul-20 12:27 35.233361 -120.632147 213 220ft 0kts
16-Jul-20 12:28 35.233277 -120.632286 258 219ft 3kts
16-Jul-20 12:29 35.232997 -120.633394 304 215ft 9kts
16-Jul-20 12:30 35.248171 -120.659490 302 1011ft 177kts
16-Jul-20 12:31 35.279344 -120.715048 302 3722ft 210kts
16-Jul-20 12:32 35.277507 -120.773572 194 6719ft 211kts
16-Jul-20 12:33 35.230339 -120.735247 132 9028ft 249kts
16-Jul-20 12:34 35.180761 -120.667015 131 8999ft 262kts
16-Jul-20 12:35 35.133259 -120.602458 131 11018ft 268kts
16-Jul-20 12:36 35.079378 -120.529969 131 11001ft 299kts
16-Jul-20 12:37 35.022810 -120.453921 132 10998ft 306kts
16-Jul-20 12:38 34.965339 -120.376813 132 10997ft 308kts
16-Jul-20 12:39 34.907496 -120.299343 133 10998ft 309kts
16-Jul-20 12:40 34.849431 -120.221717 133 11000ft 311kts
16-Jul-20 12:41 34.791146 -120.143914 133 10994ft 310kts
16-Jul-20 12:42 34.732571 -120.066960 133 10992ft 310kts
16-Jul-20 12:43 34.674356 -119.989286 133 10991ft 310kts
16-Jul-20 12:44 34.616144 -119.911702 133 11003ft 309kts
16-Jul-20 12:45 34.557730 -119.834350 133 11014ft 309kts
16-Jul-20 12:46 34.506576 -119.751038 108 11025ft 312kts
16-Jul-20 12:47 34.488511 -119.647448 103 11026ft 314kts
16-Jul-20 12:48 34.471125 -119.543551 103 11026ft 314kts
16-Jul-20 12:49 34.453417 -119.439780 103 11022ft 314kts
16-Jul-20 12:50 34.435763 -119.335801 104 11021ft 314kts
16-Jul-20 12:51 34.417826 -119.231785 104 11016ft 315kts
16-Jul-20 12:52 34.399804 -119.127767 104 11007ft 315kts
16-Jul-20 12:53 34.381600 -119.023169 104 10999ft 315kts
16-Jul-20 12:54 34.363609 -118.920338 103 10999ft 317kts
16-Jul-20 12:55 34.335530 -118.819163 113 10999ft 318kts
16-Jul-20 12:56 34.301698 -118.719568 113 11005ft 320kts
16-Jul-20 12:57 34.267567 -118.619773 113 11006ft 321kts
16-Jul-20 12:58 34.233318 -118.519987 112 10922ft 322kts
16-Jul-20 12:59 34.205626 -118.434141 110 9072ft 264kts
16-Jul-20 13:00 34.180436 -118.349660 111 7581ft 253kts
16-Jul-20 13:01 34.157097 -118.272844 111 7003ft 244kts
16-Jul-20 13:03 34.133398 -118.195125 111 7026ft 255kts
16-Jul-20 13:04 34.108263 -118.112902 111 7026ft 265kts
16-Jul-20 13:05 34.083139 -118.030921 111 7028ft 268kts
16-Jul-20 13:06 34.075761 -117.943056 90 7030ft 271kts
16-Jul-20 13:07 34.077347 -117.851919 89 7034ft 272kts
16-Jul-20 13:08 34.065685 -117.766591 126 6230ft 240kts
16-Jul-20 13:09 34.025272 -117.701316 127 4988ft 245kts
16-Jul-20 13:10 34.010694 -117.625747 91 4276ft 230kts
16-Jul-20 13:11 34.008990 -117.552314 91 4283ft 209kts
16-Jul-20 13:12 34.020202 -117.488698 68 4283ft 193kts
16-Jul-20 13:13 34.038287 -117.427155 70 4242ft 196kts
16-Jul-20 13:14 34.056325 -117.366505 70 3214ft 152kts
16-Jul-20 13:15 34.069120 -117.323473 70 2322ft 121kts
16-Jul-20 13:16 34.079728 -117.287661 68 1649ft 112kts
16-Jul-20 13:17 34.090865 -117.249766 70 1134ft 113kts
16-Jul-20 13:18 34.095628 -117.235931 334 1120ft 19kts
16-Jul-20 13:19 34.097648 -117.233169 70 1127ft 18kts
16-Jul-20 13:20 34.099723 -117.227331 31 1142ft 17kts
16-Jul-20 13:21 34.101747 -117.224990 168 1149ft 6kts
16-Jul-20 13:21 34.101733 -117.224988 175 1149ft 0kts

Navigation Log

Ident Type
Flight plan parsing failed, navigation log unavailable